Time;durP1;ratioP1;P1;durP2;ratioP2;P2;SDS_P1;SDS_P2;PMS_P1;PMS_P2;Temp;Humidity;BMP_temperature;BMP_pressure;BME280_temperature;BME280_humidity;BME280_pressure;Samples;Min_cycle;Max_cycle;Signal;HPM_P1;HPM_P2
2023/04/22 00:02:15;;;;;;;0.43;0.30;;;10.60;88.40;;;;;;5030176;28;20034;-78
2023/04/22 00:04:42;;;;;;;0.40;0.40;;;10.60;88.70;;;;;;5029208;28;20064;-78
2023/04/22 00:07:08;;;;;;;0.28;0.20;;;10.50;88.90;;;;;;5028359;28;20026;-77
2023/04/22 00:09:34;;;;;;;0.40;0.40;;;10.50;89.00;;;;;;5034337;28;20032;-78
2023/04/22 00:12:01;;;;;;;0.20;0.20;;;10.50;89.10;;;;;;5028941;28;20033;-80
2023/04/22 00:14:26;;;;;;;0.20;0.20;;;10.50;89.20;;;;;;5027643;28;20025;-79
2023/04/22 00:16:52;;;;;;;0.25;0.20;;;10.50;89.30;;;;;;5031698;28;20022;-79
2023/04/22 00:19:18;;;;;;;0.28;0.28;;;10.50;89.40;;;;;;5035251;28;20026;-79
2023/04/22 00:21:43;;;;;;;0.28;0.28;;;10.40;89.50;;;;;;5026966;28;20212;-80
2023/04/22 00:24:09;;;;;;;0.30;0.30;;;10.40;89.80;;;;;;5029547;28;20030;-79
2023/04/22 00:26:35;;;;;;;0.20;0.20;;;10.40;90.00;;;;;;5031423;28;20017;-77
2023/04/22 00:29:00;;;;;;;0.20;0.20;;;10.40;90.20;;;;;;5020912;28;20122;-77
2023/04/22 00:31:26;;;;;;;0.30;0.25;;;10.40;90.40;;;;;;5016516;28;20040;-76
2023/04/22 00:33:52;;;;;;;0.30;0.30;;;10.40;90.50;;;;;;5016784;28;20037;-76
2023/04/22 00:36:17;;;;;;;0.40;0.40;;;10.40;90.50;;;;;;5012113;28;20039;-80
2023/04/22 00:38:52;;;;;;;0.32;0.30;;;10.40;90.60;;;;;;5021895;28;20033;-81
2023/04/22 00:41:19;;;;;;;0.30;0.30;;;10.30;90.70;;;;;;5027134;28;20093;-78
2023/04/22 00:43:45;;;;;;;0.20;0.20;;;10.30;90.60;;;;;;5029231;28;20037;-77
2023/04/22 00:46:11;;;;;;;0.15;0.15;;;10.20;90.60;;;;;;5022284;28;20022;-78
2023/04/22 00:48:37;;;;;;;0.10;0.10;;;10.20;90.70;;;;;;5023354;28;20023;-78
2023/04/22 00:51:04;;;;;;;0.20;0.20;;;10.20;90.80;;;;;;5007760;28;20026;-79
2023/04/22 00:53:30;;;;;;;0.20;0.20;;;10.20;90.90;;;;;;5008012;28;20018;-77
2023/04/22 00:55:56;;;;;;;0.17;0.13;;;10.20;91.00;;;;;;5007093;28;20239;-79
2023/04/22 00:58:27;;;;;;;0.30;0.30;;;10.20;91.10;;;;;;5014322;28;20025;-79
2023/04/22 01:00:52;;;;;;;0.38;0.38;;;10.20;91.20;;;;;;5010894;28;20090;-80
2023/04/22 01:03:19;;;;;;;0.20;0.20;;;10.20;91.40;;;;;;5007308;28;20034;-79
2023/04/22 01:05:47;;;;;;;0.20;0.20;;;10.20;91.60;;;;;;5013446;28;20097;-79
2023/04/22 01:08:13;;;;;;;0.20;0.20;;;10.10;91.70;;;;;;5010783;28;20541;-79
2023/04/22 01:10:40;;;;;;;0.20;0.20;;;10.10;91.90;;;;;;5025553;28;20042;-80
2023/04/22 01:13:06;;;;;;;0.10;0.10;;;10.10;92.00;;;;;;5021430;28;20022;-79
2023/04/22 01:15:31;;;;;;;0.13;0.13;;;10.10;92.10;;;;;;5020156;28;20064;-79
2023/04/22 01:18:01;;;;;;;0.20;0.20;;;10.10;92.10;;;;;;5034818;28;20049;-79
2023/04/22 01:20:28;;;;;;;0.10;0.10;;;10.00;92.20;;;;;;5008319;28;20088;-79
2023/04/22 01:22:57;;;;;;;0.13;0.13;;;10.00;92.40;;;;;;5003693;28;20041;-80
2023/04/22 01:25:24;;;;;;;0.55;0.20;;;10.00;92.50;;;;;;5002384;28;20030;-79
2023/04/22 01:27:54;;;;;;;0.10;0.10;;;10.00;92.60;;;;;;5001907;28;20027;-79
2023/04/22 01:30:20;;;;;;;0.22;0.20;;;10.00;92.70;;;;;;5005786;28;20033;-80
2023/04/22 01:32:45;;;;;;;0.15;0.10;;;9.90;92.90;;;;;;5003271;28;20031;-79
2023/04/22 01:35:11;;;;;;;0.10;0.10;;;9.90;93.00;;;;;;5003698;28;20049;-79
2023/04/22 01:37:37;;;;;;;0.20;0.20;;;9.90;93.10;;;;;;5004011;28;20379;-80
2023/04/22 01:40:03;;;;;;;0.32;0.32;;;9.90;93.20;;;;;;5008237;28;20463;-80
2023/04/22 01:42:32;;;;;;;0.10;0.10;;;9.80;93.40;;;;;;5019717;28;20037;-81
2023/04/22 01:44:58;;;;;;;0.63;0.30;;;9.70;93.40;;;;;;5017257;28;20026;-82
2023/04/22 01:47:24;;;;;;;0.30;0.20;;;9.70;93.50;;;;;;5000567;28;20019;-79
2023/04/22 01:49:50;;;;;;;0.20;0.20;;;9.70;93.60;;;;;;5001636;28;20137;-79
2023/04/22 01:52:19;;;;;;;0.13;0.13;;;9.70;93.70;;;;;;5013672;28;20018;-81
2023/04/22 01:54:45;;;;;;;0.20;0.20;;;9.70;93.80;;;;;;5014994;28;20018;-79
2023/04/22 01:57:13;;;;;;;0.28;0.20;;;9.70;94.00;;;;;;5015666;28;20033;-80
2023/04/22 01:59:38;;;;;;;0.20;0.20;;;9.60;94.00;;;;;;5011151;28;20022;-79
2023/04/22 02:02:04;;;;;;;0.30;0.30;;;9.60;94.00;;;;;;5028147;28;20029;-81
2023/04/22 02:04:33;;;;;;;0.20;0.20;;;9.60;94.10;;;;;;5028305;28;20033;-80
2023/04/22 02:06:59;;;;;;;0.20;0.20;;;9.60;94.30;;;;;;5035363;28;20053;-80
2023/04/22 02:09:25;;;;;;;0.20;0.20;;;9.60;94.40;;;;;;5034821;28;20033;-81
2023/04/22 02:11:50;;;;;;;0.25;0.20;;;9.50;94.50;;;;;;5033228;28;20038;-82
2023/04/22 02:14:16;;;;;;;0.30;0.30;;;9.50;94.70;;;;;;5032354;28;20049;-79
2023/04/22 02:16:42;;;;;;;0.50;0.40;;;9.50;94.80;;;;;;5044111;28;20048;-80
2023/04/22 02:19:15;;;;;;;0.35;0.30;;;9.40;94.90;;;;;;5054996;28;20025;-81
2023/04/22 02:21:40;;;;;;;0.52;0.30;;;9.40;95.10;;;;;;5047607;28;20018;-80
2023/04/22 02:24:06;;;;;;;0.35;0.35;;;9.30;95.20;;;;;;5035285;28;20021;-81
2023/04/22 02:26:32;;;;;;;0.52;0.50;;;9.30;95.30;;;;;;5034006;28;20049;-79
2023/04/22 02:28:57;;;;;;;0.35;0.35;;;9.20;95.50;;;;;;5024354;28;20049;-80
2023/04/22 02:31:23;;;;;;;0.63;0.30;;;9.20;95.70;;;;;;5026801;28;20034;-80
2023/04/22 02:33:53;;;;;;;0.20;0.20;;;9.10;95.90;;;;;;5035442;28;20029;-79
2023/04/22 02:36:18;;;;;;;0.30;0.30;;;9.10;95.90;;;;;;5033970;28;20026;-81
2023/04/22 02:38:45;;;;;;;0.50;0.50;;;9.10;96.00;;;;;;5026415;28;20395;-80
2023/04/22 02:41:14;;;;;;;0.30;0.30;;;9.00;96.10;;;;;;5018570;28;20022;-80
2023/04/22 02:43:44;;;;;;;0.47;0.40;;;9.00;96.20;;;;;;5016730;28;20033;-79
2023/04/22 02:46:11;;;;;;;0.55;0.40;;;8.90;96.30;;;;;;5017863;28;20026;-79
2023/04/22 02:48:38;;;;;;;0.65;0.65;;;8.90;96.50;;;;;;5018317;28;20029;-81
2023/04/22 02:51:05;;;;;;;0.40;0.40;;;8.90;96.70;;;;;;5016783;28;20024;-79
2023/04/22 02:53:31;;;;;;;0.40;0.40;;;8.80;96.80;;;;;;5015859;28;20025;-80
2023/04/22 02:55:57;;;;;;;0.47;0.47;;;8.80;97.00;;;;;;5017111;28;20026;-81
2023/04/22 02:58:23;;;;;;;0.57;0.57;;;8.80;97.20;;;;;;5016433;28;20053;-80
2023/04/22 03:00:48;;;;;;;0.45;0.45;;;8.80;97.30;;;;;;5017474;28;20046;-81
2023/04/22 03:03:17;;;;;;;0.40;0.40;;;8.80;97.30;;;;;;5020244;28;20036;-79
2023/04/22 03:05:43;;;;;;;0.47;0.47;;;8.80;97.40;;;;;;5025245;28;20018;-81
2023/04/22 03:08:08;;;;;;;0.43;0.40;;;8.80;97.60;;;;;;5025050;28;20120;-79
2023/04/22 03:10:34;;;;;;;0.45;0.40;;;8.80;97.70;;;;;;5016625;28;20032;-83
2023/04/22 03:13:00;;;;;;;0.32;0.32;;;8.80;97.80;;;;;;5028432;28;20029;-84
2023/04/22 03:15:26;;;;;;;0.30;0.30;;;8.70;97.80;;;;;;5038068;28;20332;-81
2023/04/22 03:17:54;;;;;;;0.30;0.30;;;8.70;97.90;;;;;;5019249;28;20041;-82
2023/04/22 03:20:21;;;;;;;0.25;0.25;;;8.70;97.90;;;;;;5018085;28;20041;-83
2023/04/22 03:22:46;;;;;;;0.50;0.50;;;8.60;98.00;;;;;;5018221;28;20104;-82
2023/04/22 03:25:12;;;;;;;0.30;0.30;;;8.60;98.20;;;;;;5017248;28;20466;-81
2023/04/22 03:27:38;;;;;;;0.30;0.30;;;8.60;98.30;;;;;;5020899;28;20034;-79
2023/04/22 03:30:08;;;;;;;0.30;0.30;;;8.60;98.50;;;;;;5022798;28;20050;-80
2023/04/22 03:33:06;;;;;;;1.08;0.50;;;8.60;98.60;;;;;;5022206;28;20028;-81
2023/04/22 03:35:33;;;;;;;0.32;0.32;;;8.60;98.70;;;;;;5028680;28;20050;-81
2023/04/22 03:37:58;;;;;;;0.32;0.32;;;8.60;98.70;;;;;;5031241;28;20025;-79
2023/04/22 03:40:24;;;;;;;0.30;0.30;;;8.50;98.70;;;;;;5026600;28;20030;-80
2023/04/22 03:42:50;;;;;;;0.30;0.30;;;8.50;98.70;;;;;;5018741;28;20022;-80
2023/04/22 03:45:15;;;;;;;0.28;0.28;;;8.40;98.80;;;;;;5024763;28;20022;-80
2023/04/22 03:47:41;;;;;;;0.40;0.40;;;8.40;98.70;;;;;;5037530;28;20025;-80
2023/04/22 03:50:07;;;;;;;0.38;0.30;;;8.30;98.80;;;;;;5044443;28;20021;-80
2023/04/22 03:52:41;;;;;;;0.30;0.22;;;8.30;98.90;;;;;;5055957;28;20103;-79
2023/04/22 03:55:07;;;;;;;0.40;0.40;;;8.30;99.10;;;;;;5044707;28;20030;-77
2023/04/22 03:57:33;;;;;;;0.30;0.30;;;8.30;99.20;;;;;;5031695;28;20045;-79
2023/04/22 03:59:59;;;;;;;0.47;0.47;;;8.20;99.30;;;;;;5027244;28;20078;-80
2023/04/22 04:02:25;;;;;;;0.73;0.30;;;8.20;99.20;;;;;;5026808;28;20036;-79
2023/04/22 04:04:50;;;;;;;0.20;0.20;;;8.20;99.30;;;;;;5026804;28;20038;-78
2023/04/22 04:07:16;;;;;;;0.25;0.25;;;8.20;99.40;;;;;;5025817;28;20454;-80
2023/04/22 04:09:41;;;;;;;0.65;0.55;;;8.20;99.50;;;;;;5023341;28;20375;-79
2023/04/22 04:12:07;;;;;;;0.60;0.60;;;8.10;99.60;;;;;;5026690;28;20067;-79
2023/04/22 04:14:33;;;;;;;0.32;0.32;;;8.10;99.90;;;;;;5028331;28;20026;-79
2023/04/22 04:16:58;;;;;;;0.32;0.32;;;8.10;99.70;;;;;;5036381;28;20033;-80
2023/04/22 04:19:24;;;;;;;0.50;0.50;;;8.10;99.90;;;;;;5028483;28;20033;-78
2023/04/22 04:21:50;;;;;;;0.28;0.28;;;8.20;99.90;;;;;;5029683;28;20078;-79
2023/04/22 04:24:15;;;;;;;0.20;0.20;;;8.20;99.90;;;;;;5027392;28;20097;-79
2023/04/22 04:26:41;;;;;;;0.40;0.40;;;8.20;99.90;;;;;;5009257;28;20137;-77
2023/04/22 04:29:07;;;;;;;0.43;0.43;;;8.20;99.90;;;;;;5003624;28;20402;-79
2023/04/22 04:31:34;;;;;;;0.38;0.30;;;8.30;99.90;;;;;;5003321;28;20138;-79
2023/04/22 04:33:59;;;;;;;0.68;0.65;;;8.30;99.90;;;;;;5004788;28;20065;-78
2023/04/22 04:36:26;;;;;;;0.43;0.40;;;8.40;99.70;;;;;;5008476;28;20026;-79
2023/04/22 04:38:52;;;;;;;0.40;0.40;;;8.40;99.60;;;;;;5016111;28;20030;-79
2023/04/22 04:41:20;;;;;;;0.30;0.30;;;8.40;99.50;;;;;;5022348;28;20049;-79
2023/04/22 04:43:46;;;;;;;0.30;0.30;;;8.50;99.40;;;;;;5021375;28;20041;-79
2023/04/22 04:46:13;;;;;;;0.55;0.43;;;8.50;99.20;;;;;;5045848;28;20040;-79
2023/04/22 04:48:41;;;;;;;0.38;0.38;;;8.60;99.10;;;;;;5051308;28;20089;-77
2023/04/22 04:51:07;;;;;;;0.55;0.30;;;8.60;99.10;;;;;;5045253;28;20089;-77
2023/04/22 04:53:33;;;;;;;0.50;0.50;;;8.60;99.10;;;;;;5032203;28;20029;-78
2023/04/22 04:55:59;;;;;;;0.40;0.30;;;8.80;99.00;;;;;;5035803;28;20066;-78
2023/04/22 04:58:24;;;;;;;0.38;0.38;;;8.80;98.60;;;;;;5032743;28;20049;-79
2023/04/22 05:00:50;;;;;;;0.30;0.30;;;8.90;98.40;;;;;;5027545;28;20026;-79
2023/04/22 05:03:16;;;;;;;0.47;0.40;;;9.00;98.10;;;;;;5024368;28;20030;-77
2023/04/22 05:05:42;;;;;;;0.20;0.20;;;9.10;97.80;;;;;;5028233;28;20025;-79
2023/04/22 05:08:08;;;;;;;0.38;0.38;;;9.10;97.40;;;;;;5031459;28;20053;-78
2023/04/22 05:10:33;;;;;;;0.38;0.20;;;9.20;97.20;;;;;;5028209;28;20034;-79
2023/04/22 05:12:59;;;;;;;0.47;0.47;;;9.20;96.90;;;;;;5026469;28;20101;-78
2023/04/22 05:15:25;;;;;;;0.30;0.30;;;9.30;96.80;;;;;;5031817;28;20037;-77
2023/04/22 05:17:51;;;;;;;0.20;0.20;;;9.40;96.50;;;;;;5035427;28;20099;-78
2023/04/22 05:20:17;;;;;;;0.30;0.30;;;9.40;96.30;;;;;;5025873;28;20033;-78
2023/04/22 05:22:44;;;;;;;0.17;0.17;;;9.50;96.00;;;;;;5026441;28;20026;-78
2023/04/22 05:25:10;;;;;;;0.30;0.30;;;9.50;95.80;;;;;;5022994;28;20026;-76
2023/04/22 05:27:36;;;;;;;0.17;0.17;;;9.60;95.60;;;;;;5023966;28;20026;-78
2023/04/22 05:30:02;;;;;;;0.43;0.40;;;9.70;95.40;;;;;;5025426;28;20014;-78
2023/04/22 05:32:28;;;;;;;0.43;0.30;;;9.70;95.10;;;;;;5025830;28;20022;-78
2023/04/22 05:34:53;;;;;;;0.20;0.20;;;9.80;94.90;;;;;;5026984;28;20018;-78
2023/04/22 05:37:19;;;;;;;0.30;0.30;;;9.90;94.60;;;;;;5027056;28;20037;-78
2023/04/22 05:39:45;;;;;;;0.47;0.40;;;10.00;94.30;;;;;;5027735;28;20038;-80
2023/04/22 05:42:11;;;;;;;0.25;0.25;;;10.10;94.10;;;;;;5025481;28;20053;-78
2023/04/22 05:44:36;;;;;;;0.20;0.20;;;10.20;93.40;;;;;;5025805;28;20021;-79
2023/04/22 05:47:02;;;;;;;0.30;0.30;;;10.40;93.00;;;;;;5044127;28;20082;-78
2023/04/22 05:49:27;;;;;;;0.30;0.30;;;10.50;92.90;;;;;;5053429;28;20021;-78
2023/04/22 05:51:53;;;;;;;0.20;0.20;;;10.60;92.20;;;;;;5057109;28;20029;-78
2023/04/22 05:54:19;;;;;;;0.15;0.15;;;10.70;91.80;;;;;;5051469;28;20037;-77
2023/04/22 05:56:45;;;;;;;0.10;0.10;;;10.80;91.50;;;;;;5033909;28;20038;-79
2023/04/22 05:59:10;;;;;;;0.30;0.30;;;10.90;91.20;;;;;;5029972;28;20037;-79
2023/04/22 06:01:36;;;;;;;0.20;0.20;;;11.00;90.90;;;;;;5034093;28;20032;-77
2023/04/22 06:04:04;;;;;;;0.28;0.28;;;11.10;90.50;;;;;;5034961;28;20030;-78
2023/04/22 06:06:31;;;;;;;0.30;0.30;;;11.20;90.20;;;;;;5030855;28;20029;-77
2023/04/22 06:08:57;;;;;;;0.20;0.20;;;11.30;89.60;;;;;;5024189;28;20053;-79
2023/04/22 06:11:22;;;;;;;0.28;0.28;;;11.40;88.90;;;;;;5030431;28;20010;-79
2023/04/22 06:13:48;;;;;;;0.40;0.40;;;11.50;88.10;;;;;;5034107;28;20066;-77
2023/04/22 06:16:14;;;;;;;0.43;0.30;;;11.60;87.40;;;;;;5041320;28;20033;-78
2023/04/22 06:18:39;;;;;;;0.30;0.30;;;11.80;86.50;;;;;;5027047;28;20029;-79
2023/04/22 06:21:05;;;;;;;0.40;0.25;;;12.00;85.70;;;;;;5023965;28;20049;-79
2023/04/22 06:23:31;;;;;;;0.38;0.38;;;12.30;85.20;;;;;;5022053;28;20033;-79
2023/04/22 06:25:57;;;;;;;0.10;0.10;;;13.40;84.90;;;;;;5023786;28;20135;-78
2023/04/22 06:28:23;;;;;;;0.20;0.20;;;15.80;79.40;;;;;;5009847;28;20046;-78
2023/04/22 06:30:48;;;;;;;0.43;0.40;;;18.20;71.10;;;;;;5005002;28;20030;-78
2023/04/22 06:33:14;;;;;;;0.43;0.30;;;20.00;63.70;;;;;;5004351;28;20552;-79
2023/04/22 06:35:40;;;;;;;0.30;0.30;;;21.20;57.20;;;;;;5003025;28;20023;-79
2023/04/22 06:38:06;;;;;;;0.28;0.28;;;21.90;54.60;;;;;;4999931;28;20031;-80
2023/04/22 06:40:31;;;;;;;0.40;0.40;;;22.60;52.10;;;;;;4999020;28;20034;-78
2023/04/22 06:42:57;;;;;;;0.20;0.20;;;22.60;49.70;;;;;;4999474;28;20031;-78
2023/04/22 06:45:23;;;;;;;0.20;0.20;;;21.80;49.10;;;;;;5013484;28;20021;-79
2023/04/22 06:47:52;;;;;;;0.30;0.30;;;20.80;49.70;;;;;;5031202;28;20093;-77
2023/04/22 06:50:18;;;;;;;0.20;0.20;;;19.60;51.00;;;;;;5021224;28;20057;-77
2023/04/22 06:52:46;;;;;;;0.15;0.15;;;18.40;52.90;;;;;;5025973;28;20030;-78
2023/04/22 06:55:12;;;;;;;0.20;0.20;;;17.40;54.90;;;;;;5030977;28;20016;-78
2023/04/22 06:57:38;;;;;;;0.22;0.22;;;16.70;56.80;;;;;;5032963;28;20026;-78
2023/04/22 07:00:07;;;;;;;0.30;0.30;;;16.10;58.20;;;;;;5033514;28;20109;-76
2023/04/22 07:02:33;;;;;;;0.28;0.20;;;15.80;59.60;;;;;;5034352;28;20100;-77
2023/04/22 07:04:58;;;;;;;0.68;0.20;;;15.40;61.10;;;;;;5032354;28;20337;-76
2023/04/22 07:07:24;;;;;;;0.50;0.30;;;15.30;61.20;;;;;;5022451;28;20033;-77
2023/04/22 07:09:50;;;;;;;0.35;0.35;;;15.10;61.80;;;;;;5015033;28;20097;-76
2023/04/22 07:12:16;;;;;;;0.30;0.30;;;15.10;62.40;;;;;;5016131;28;20022;-76
2023/04/22 07:14:45;;;;;;;0.20;0.20;;;14.90;62.90;;;;;;5011319;28;20046;-78
2023/04/22 07:17:11;;;;;;;0.30;0.30;;;14.80;63.40;;;;;;5031159;28;20026;-78
2023/04/22 07:19:37;;;;;;;0.50;0.50;;;14.80;63.60;;;;;;5024285;28;20102;-78
2023/04/22 07:22:03;;;;;;;1.02;0.50;;;14.70;64.00;;;;;;5024055;28;20081;-77
2023/04/22 07:24:29;;;;;;;0.60;0.60;;;14.70;64.20;;;;;;5024338;28;20032;-79
2023/04/22 07:26:55;;;;;;;0.43;0.43;;;14.70;64.30;;;;;;5023453;28;20052;-78
2023/04/22 07:29:21;;;;;;;0.38;0.38;;;14.80;64.40;;;;;;5021377;28;20093;-78
2023/04/22 07:31:46;;;;;;;0.73;0.55;;;15.00;64.40;;;;;;5025221;28;20053;-79
2023/04/22 07:34:13;;;;;;;0.45;0.45;;;15.10;64.10;;;;;;5024473;28;20030;-78
2023/04/22 07:36:39;;;;;;;0.43;0.43;;;15.20;63.80;;;;;;5023152;28;20018;-79
2023/04/22 07:39:04;;;;;;;0.50;0.50;;;15.20;63.70;;;;;;5022817;28;20482;-79
2023/04/22 07:41:30;;;;;;;0.60;0.60;;;15.30;63.80;;;;;;5021338;28;20034;-78
2023/04/22 07:43:56;;;;;;;0.57;0.57;;;15.40;62.80;;;;;;5022292;28;20030;-77
2023/04/22 07:46:22;;;;;;;0.40;0.40;;;15.50;62.20;;;;;;5030761;28;20029;-77
2023/04/22 07:48:47;;;;;;;0.70;0.60;;;15.60;61.80;;;;;;5032235;28;20026;-78
2023/04/22 07:51:13;;;;;;;1.17;0.50;;;15.70;61.40;;;;;;5025252;28;20050;-76
2023/04/22 07:53:39;;;;;;;0.40;0.40;;;15.80;61.00;;;;;;5033319;28;20018;-76
2023/04/22 07:56:04;;;;;;;0.65;0.65;;;15.90;60.60;;;;;;5029058;28;20538;-78
2023/04/22 07:58:30;;;;;;;0.75;0.60;;;16.10;60.20;;;;;;5022560;28;20095;-79
2023/04/22 08:00:56;;;;;;;0.50;0.50;;;16.20;59.70;;;;;;5023674;28;20057;-78
2023/04/22 08:03:22;;;;;;;0.60;0.50;;;16.30;58.90;;;;;;5022657;28;20029;-78
2023/04/22 08:05:48;;;;;;;0.30;0.30;;;16.40;58.40;;;;;;5022459;28;20022;-79
2023/04/22 08:08:14;;;;;;;0.38;0.35;;;16.60;58.10;;;;;;5024624;28;20076;-79
2023/04/22 08:10:39;;;;;;;0.68;0.60;;;16.70;57.50;;;;;;5022363;28;20109;-78
2023/04/22 08:13:05;;;;;;;0.55;0.55;;;16.90;57.30;;;;;;5025860;28;20057;-79
2023/04/22 08:15:31;;;;;;;0.40;0.40;;;17.00;57.10;;;;;;5032491;28;20033;-79
2023/04/22 08:17:57;;;;;;;0.40;0.40;;;17.20;56.90;;;;;;5035377;28;20029;-78
2023/04/22 08:20:24;;;;;;;0.70;0.60;;;17.20;56.40;;;;;;5033122;28;20073;-80
2023/04/22 08:22:51;;;;;;;0.50;0.50;;;17.20;56.10;;;;;;5027109;28;20059;-79
2023/04/22 08:25:17;;;;;;;0.50;0.50;;;17.30;56.10;;;;;;5024755;28;20107;-77
2023/04/22 08:27:43;;;;;;;0.50;0.50;;;17.40;56.10;;;;;;5025957;28;20038;-77
2023/04/22 08:30:09;;;;;;;0.47;0.47;;;17.70;55.60;;;;;;5025509;28;20102;-79
2023/04/22 08:32:34;;;;;;;0.30;0.30;;;17.90;54.70;;;;;;5025032;28;20038;-78
2023/04/22 08:35:00;;;;;;;0.38;0.38;;;18.10;53.90;;;;;;5024425;28;20037;-80
2023/04/22 08:37:26;;;;;;;1.02;0.40;;;18.20;54.00;;;;;;5026198;28;20030;-79
2023/04/22 08:39:52;;;;;;;0.60;0.60;;;18.30;53.90;;;;;;5031015;28;20030;-78
2023/04/22 08:42:19;;;;;;;0.45;0.45;;;18.50;53.70;;;;;;5035589;28;20061;-78
2023/04/22 08:44:48;;;;;;;0.50;0.50;;;18.70;53.10;;;;;;5029453;28;20065;-77
2023/04/22 08:47:15;;;;;;;0.57;0.57;;;19.00;52.40;;;;;;5036301;28;20026;-78
2023/04/22 08:49:42;;;;;;;0.55;0.55;;;19.10;51.90;;;;;;5028643;28;20026;-78
2023/04/22 08:52:10;;;;;;;0.77;0.63;;;19.30;52.00;;;;;;5025775;28;20449;-78
2023/04/22 08:54:36;;;;;;;0.60;0.60;;;19.40;51.70;;;;;;5026485;28;20029;-81
2023/04/22 08:57:05;;;;;;;0.60;0.60;;;19.50;51.20;;;;;;5029864;28;20022;-78
2023/04/22 08:59:30;;;;;;;0.40;0.40;;;19.60;50.80;;;;;;5036069;28;20026;-78
2023/04/22 09:01:57;;;;;;;0.50;0.50;;;19.70;50.50;;;;;;5031392;28;20427;-79
2023/04/22 09:04:23;;;;;;;0.80;0.57;;;19.60;50.10;;;;;;5029576;28;20038;-79
2023/04/22 09:06:49;;;;;;;0.60;0.60;;;19.40;50.00;;;;;;5027553;28;20069;-79
2023/04/22 09:09:15;;;;;;;1.00;0.73;;;19.40;50.10;;;;;;5026170;28;20022;-79
2023/04/22 09:11:41;;;;;;;0.50;0.50;;;19.30;50.00;;;;;;5027990;28;20037;-80
2023/04/22 09:14:06;;;;;;;1.67;0.50;;;19.30;49.80;;;;;;5028004;28;20025;-79
2023/04/22 09:16:39;;;;;;;0.40;0.40;;;19.40;50.30;;;;;;5035126;28;20136;-80
2023/04/22 09:19:04;;;;;;;0.40;0.40;;;19.60;50.20;;;;;;5029887;28;20134;-80
2023/04/22 09:21:32;;;;;;;1.52;0.65;;;19.80;49.60;;;;;;5028794;28;20030;-81
2023/04/22 09:24:01;;;;;;;0.70;0.70;;;19.90;49.50;;;;;;5011596;28;20026;-80
2023/04/22 09:26:27;;;;;;;1.33;0.60;;;20.00;48.90;;;;;;5003596;28;20026;-79
2023/04/22 09:28:57;;;;;;;0.57;0.52;;;20.00;49.50;;;;;;5008770;28;20097;-80
2023/04/22 09:31:23;;;;;;;0.52;0.45;;;20.20;48.80;;;;;;5007984;28;20026;-80
2023/04/22 09:33:59;;;;;;;0.45;0.45;;;20.40;48.60;;;;;;5011066;28;20460;-79
2023/04/22 09:36:26;;;;;;;0.50;0.50;;;20.70;48.30;;;;;;5006738;28;20117;-79
2023/04/22 09:38:58;;;;;;;0.63;0.57;;;20.80;47.90;;;;;;5007741;28;20062;-79
2023/04/22 09:41:32;;;;;;;0.50;0.40;;;20.80;47.70;;;;;;5007540;28;20065;-79
2023/04/22 09:43:59;;;;;;;0.60;0.60;;;21.00;47.80;;;;;;5027980;28;20034;-79
2023/04/22 09:46:26;;;;;;;2.33;0.57;;;21.20;47.40;;;;;;5033509;28;20032;-79
2023/04/22 09:48:54;;;;;;;0.50;0.50;;;21.20;47.50;;;;;;5038283;28;20089;-79
2023/04/22 09:51:20;;;;;;;0.50;0.50;;;21.30;48.30;;;;;;5029955;28;20054;-79
2023/04/22 09:54:09;;;;;;;0.75;0.70;;;21.50;47.60;;;;;;5029457;28;20041;-79
2023/04/22 09:56:47;;;;;;;0.52;0.52;;;21.40;47.10;;;;;;5028716;28;20057;-80
2023/04/22 09:59:27;;;;;;;0.50;0.50;;;21.40;47.40;;;;;;5027129;28;20014;-78
2023/04/22 10:01:56;;;;;;;1.08;0.50;;;21.40;46.90;;;;;;5022748;28;20100;-77
2023/04/22 10:04:24;;;;;;;0.80;0.70;;;21.40;47.00;;;;;;5022745;28;20026;-78
2023/04/22 10:06:53;;;;;;;0.63;0.63;;;21.60;46.70;;;;;;5024202;28;20030;-79
2023/04/22 10:09:21;;;;;;;0.60;0.60;;;21.70;47.10;;;;;;5024168;28;20053;-79
2023/04/22 10:11:48;;;;;;;0.40;0.40;;;21.80;47.60;;;;;;5026295;28;20022;-77
2023/04/22 10:14:14;;;;;;;0.95;0.77;;;22.10;47.30;;;;;;5022742;28;20156;-79
2023/04/22 10:16:44;;;;;;;0.93;0.57;;;22.10;46.40;;;;;;5031046;28;20021;-78
2023/04/22 10:19:14;;;;;;;1.10;0.65;;;21.80;47.00;;;;;;5042283;28;20028;-78
2023/04/22 10:21:43;;;;;;;0.95;0.90;;;21.60;47.80;;;;;;5024827;28;20032;-78
2023/04/22 10:24:17;;;;;;;0.70;0.70;;;21.60;47.90;;;;;;5023032;28;20021;-79
2023/04/22 10:26:53;;;;;;;0.50;0.50;;;21.70;47.50;;;;;;5022656;28;20076;-79
2023/04/22 10:29:20;;;;;;;0.75;0.73;;;21.70;47.40;;;;;;5022893;28;20018;-79
2023/04/22 10:32:03;;;;;;;0.68;0.60;;;21.70;47.50;;;;;;5023560;28;20562;-78
2023/04/22 10:34:32;;;;;;;0.40;0.40;;;22.00;47.50;;;;;;5024101;28;20045;-80
2023/04/22 10:37:12;;;;;;;1.27;0.60;;;22.20;46.80;;;;;;5023711;28;20030;-79
2023/04/22 10:39:40;;;;;;;0.60;0.60;;;22.40;46.30;;;;;;5031986;28;20082;-78
2023/04/22 10:42:11;;;;;;;0.60;0.60;;;22.50;46.10;;;;;;5033828;28;20022;-79
2023/04/22 10:44:59;;;;;;;0.50;0.50;;;22.90;45.90;;;;;;5034911;28;20014;-78
2023/04/22 10:47:35;;;;;;;0.50;0.50;;;22.90;45.10;;;;;;5032338;28;20049;-78
2023/04/22 10:50:30;;;;;;;0.30;0.30;;;23.00;45.00;;;;;;5023464;28;20060;-78
2023/04/22 10:53:19;;;;;;;0.70;0.70;;;23.30;44.70;;;;;;5005800;28;20029;-79
2023/04/22 10:55:52;;;;;;;0.50;0.50;;;23.40;44.00;;;;;;5004022;28;20049;-78
2023/04/22 10:58:23;;;;;;;0.40;0.40;;;23.50;43.20;;;;;;5002126;28;20510;-80
2023/04/22 11:00:56;;;;;;;0.60;0.60;;;23.50;43.10;;;;;;5005655;28;20034;-77
2023/04/22 11:03:30;;;;;;;0.60;0.60;;;23.40;43.20;;;;;;5019619;28;20038;-77
2023/04/22 11:06:16;;;;;;;0.60;0.60;;;23.40;42.70;;;;;;5020136;28;20037;-79
2023/04/22 11:08:46;;;;;;;0.38;0.38;;;23.40;42.80;;;;;;5023245;28;20045;-78
2023/04/22 11:11:14;;;;;;;0.50;0.50;;;23.60;42.50;;;;;;5020769;28;20029;-79
2023/04/22 11:13:42;;;;;;;0.85;0.50;;;23.80;41.70;;;;;;5022665;28;20022;-79
2023/04/22 11:16:08;;;;;;;0.40;0.40;;;23.70;41.70;;;;;;5026609;28;20075;-79
2023/04/22 11:18:34;;;;;;;0.40;0.40;;;23.50;41.90;;;;;;5042852;28;20037;-78
2023/04/22 11:21:07;;;;;;;0.40;0.40;;;23.50;42.00;;;;;;5042333;28;20022;-78
2023/04/22 11:23:36;;;;;;;0.40;0.40;;;23.60;41.50;;;;;;5046095;28;20025;-79
2023/04/22 11:26:06;;;;;;;0.30;0.30;;;23.80;41.30;;;;;;5049034;28;20034;-78
2023/04/22 11:28:32;;;;;;;0.50;0.50;;;24.00;41.10;;;;;;5043561;28;20083;-77
2023/04/22 11:31:11;;;;;;;0.63;0.60;;;24.20;40.80;;;;;;5039501;28;20029;-77
2023/04/22 11:33:38;;;;;;;0.68;0.68;;;24.10;40.00;;;;;;5022406;28;20375;-77
2023/04/22 11:36:04;;;;;;;0.52;0.52;;;24.20;40.20;;;;;;5021694;28;20030;-78
2023/04/22 11:38:30;;;;;;;0.40;0.40;;;24.10;39.60;;;;;;5020885;28;20029;-78
2023/04/22 11:40:57;;;;;;;0.52;0.52;;;23.90;39.70;;;;;;5021251;28;20037;-79
2023/04/22 11:43:23;;;;;;;0.50;0.50;;;23.80;40.00;;;;;;5021833;28;20025;-79
2023/04/22 11:45:48;;;;;;;0.77;0.60;;;23.80;40.50;;;;;;5020660;28;20061;-78
2023/04/22 11:48:15;;;;;;;0.65;0.65;;;23.80;40.70;;;;;;5020273;28;20049;-79
2023/04/22 11:50:46;;;;;;;0.65;0.65;;;23.90;40.60;;;;;;5024665;28;20428;-78
2023/04/22 11:53:16;;;;;;;1.05;0.73;;;24.10;40.30;;;;;;5027187;28;20033;-79
2023/04/22 11:55:43;;;;;;;0.82;0.82;;;24.40;39.40;;;;;;5031778;28;20026;-78
2023/04/22 11:58:11;;;;;;;0.52;0.47;;;24.50;39.10;;;;;;5032054;28;20032;-77
2023/04/22 12:00:40;;;;;;;0.70;0.70;;;24.70;38.60;;;;;;5026746;28;20076;-76
2023/04/22 12:03:17;;;;;;;2.17;0.60;;;24.40;38.90;;;;;;5019176;28;20075;-79
2023/04/22 12:05:45;;;;;;;0.47;0.47;;;24.20;39.50;;;;;;5031294;28;20041;-78
2023/04/22 12:08:23;;;;;;;0.43;0.43;;;24.10;40.20;;;;;;5024262;28;20056;-79
2023/04/22 12:10:57;;;;;;;0.50;0.50;;;24.30;40.50;;;;;;5023751;28;20045;-78
2023/04/22 12:13:46;;;;;;;0.50;0.50;;;24.30;40.60;;;;;;5023067;28;20026;-79
2023/04/22 12:16:14;;;;;;;1.08;0.65;;;24.60;40.60;;;;;;5033691;28;20063;-77
2023/04/22 12:18:51;;;;;;;0.60;0.60;;;24.70;40.10;;;;;;5039234;28;20025;-78
2023/04/22 12:21:20;;;;;;;0.50;0.50;;;24.80;39.90;;;;;;5038970;28;20025;-76
2023/04/22 12:23:53;;;;;;;0.63;0.63;;;24.80;39.30;;;;;;5034190;28;20022;-80
2023/04/22 12:26:23;;;;;;;0.65;0.65;;;24.80;38.80;;;;;;5029281;28;20482;-79
2023/04/22 12:28:49;;;;;;;0.47;0.47;;;24.60;39.00;;;;;;5030977;28;20022;-82
2023/04/22 12:31:15;;;;;;;0.50;0.50;;;24.50;39.40;;;;;;5031211;28;20046;-79
2023/04/22 12:37:03;;;;;;;0.43;0.43;;;24.80;38.70;;;;;;5014014;28;20132;-81
2023/04/22 12:39:29;;;;;;;0.40;0.40;;;25.00;38.40;;;;;;5019359;28;20029;-80
2023/04/22 12:41:56;;;;;;;0.50;0.50;;;24.80;38.80;;;;;;5030670;28;20094;-81
2023/04/22 12:44:22;;;;;;;0.60;0.60;;;24.50;39.50;;;;;;5027312;28;20018;-81
2023/04/22 12:46:47;;;;;;;0.73;0.68;;;24.40;40.00;;;;;;5038860;28;20162;-81
2023/04/22 12:49:13;;;;;;;1.00;0.80;;;24.20;40.00;;;;;;5051125;28;20104;-82
2023/04/22 12:51:39;;;;;;;0.63;0.63;;;24.30;40.40;;;;;;5051494;28;20088;-82
2023/04/22 12:54:05;;;;;;;0.60;0.60;;;24.50;40.10;;;;;;5050295;28;20210;-81
2023/04/22 12:56:30;;;;;;;0.68;0.60;;;24.50;39.30;;;;;;5052270;28;20025;-81